createdAt,value
2024-04-05T00:00:18.785Z,56.20
2024-04-05T00:01:21.588Z,53.27
2024-04-05T00:02:24.138Z,53.50
2024-04-05T00:03:26.282Z,54.00
2024-04-05T00:04:28.542Z,53.30
2024-04-05T00:05:30.888Z,52.20
2024-04-05T00:06:33.317Z,54.80
2024-04-05T00:07:35.828Z,53.70
2024-04-05T00:08:38.037Z,52.90
2024-04-05T00:09:40.295Z,56.50
2024-04-05T00:10:42.897Z,53.80
2024-04-05T00:11:45.106Z,53.50
2024-04-05T00:12:58.401Z,54.40
2024-04-05T00:13:52.146Z,55.40
2024-04-05T00:14:54.405Z,51.20
2024-04-05T00:15:56.859Z,54.00
2024-04-05T00:16:59.119Z,52.10
2024-04-05T00:18:01.461Z,50.11
2024-04-05T00:19:03.481Z,53.30
2024-04-05T00:20:06.932Z,57.30
2024-04-05T00:21:09.503Z,50.09
2024-04-05T00:22:11.884Z,54.50
2024-04-05T00:23:14.901Z,50.50
2024-04-05T00:24:17.231Z,55.00
2024-04-05T00:25:21.363Z,56.50
2024-04-05T00:26:23.670Z,30.90
2024-04-05T00:27:25.897Z,57.70
2024-04-05T00:28:28.252Z,9.30
2024-04-05T00:29:30.367Z,57.80
2024-04-05T00:30:33.014Z,60.40
2024-04-05T00:31:35.345Z,58.90
2024-04-05T00:32:37.793Z,58.40
2024-04-05T00:33:40.094Z,61.10
2024-04-05T00:34:42.392Z,58.90
2024-04-05T00:35:53.503Z,58.90
2024-04-05T00:36:55.834Z,55.90
2024-04-05T00:37:58.052Z,55.10
2024-04-05T00:39:00.519Z,56.90
2024-04-05T00:40:03.049Z,57.40
2024-04-05T00:41:05.301Z,58.90
2024-04-05T00:42:07.602Z,56.40
2024-04-05T00:43:09.818Z,53.00
2024-04-05T00:44:12.376Z,59.10
2024-04-05T00:45:14.855Z,59.50
2024-04-05T00:46:16.995Z,61.50
2024-04-05T00:47:19.579Z,57.20
2024-04-05T00:48:22.854Z,56.40
2024-04-05T00:49:26.156Z,58.40
2024-04-05T00:50:29.785Z,61.73
2024-04-05T00:51:32.138Z,58.50
2024-04-05T00:52:34.971Z,57.30
2024-04-05T00:53:37.178Z,59.00
2024-04-05T00:54:39.887Z,53.40
2024-04-05T00:55:43.374Z,54.70
2024-04-05T00:56:46.709Z,62.80
2024-04-05T00:57:49.745Z,57.70
2024-04-05T00:58:52.523Z,59.82
2024-04-05T00:59:54.948Z,60.82
2024-04-05T01:00:57.710Z,61.40
2024-04-05T01:02:00.130Z,57.80
2024-04-05T01:03:03.049Z,61.90
2024-04-05T01:04:05.932Z,58.45
2024-04-05T01:05:08.346Z,60.90
2024-04-05T01:06:10.953Z,60.50
2024-04-05T01:07:13.305Z,57.20
2024-04-05T01:08:16.178Z,61.10
2024-04-05T01:09:19.754Z,56.45
2024-04-05T01:10:22.227Z,57.90
2024-04-05T01:11:24.604Z,61.40
2024-04-05T01:12:26.969Z,57.90
2024-04-05T01:13:29.195Z,60.70
2024-04-05T01:14:31.479Z,61.00
2024-04-05T01:15:34.667Z,39.33
2024-04-05T01:16:37.105Z,56.40
2024-04-05T01:17:39.599Z,58.90
2024-04-05T01:18:43.375Z,60.40
2024-04-05T01:19:46.470Z,59.00
2024-04-05T01:20:50.808Z,58.80
2024-04-05T01:21:53.873Z,58.60
2024-04-05T01:23:01.486Z,60.30
2024-04-05T01:24:04.213Z,61.70
2024-04-05T01:25:07.094Z,60.82
2024-04-05T01:26:09.977Z,60.09
2024-04-05T01:27:12.370Z,51.36
2024-04-05T01:28:15.530Z,49.00
2024-04-05T01:29:17.738Z,55.82
2024-04-05T01:30:20.246Z,53.70
2024-04-05T01:31:22.434Z,25.70
2024-04-05T01:32:24.713Z,54.40
2024-04-05T01:33:26.909Z,49.89
2024-04-05T01:34:29.375Z,56.10
2024-04-05T01:35:31.768Z,60.60
2024-04-05T01:36:34.259Z,65.00
2024-04-05T01:37:36.516Z,70.10
2024-04-05T01:38:38.734Z,71.20
2024-04-05T01:39:40.903Z,68.10
2024-04-05T01:40:43.133Z,66.50
2024-04-05T01:41:45.611Z,61.70
2024-04-05T01:42:47.852Z,56.00
2024-04-05T01:43:50.082Z,54.20
2024-04-05T01:44:52.442Z,51.20
2024-04-05T01:45:54.711Z,51.30
2024-04-05T01:46:57.214Z,53.10
2024-04-05T01:47:59.571Z,48.90
2024-04-05T01:49:01.896Z,43.80
2024-04-05T01:50:05.080Z,49.80
2024-04-05T01:51:07.379Z,43.40
2024-04-05T01:52:10.358Z,47.90
2024-04-05T01:53:12.586Z,51.00
2024-04-05T01:54:14.968Z,52.40
2024-04-05T01:55:17.599Z,48.20
2024-04-05T01:56:19.925Z,43.60
2024-04-05T01:57:22.243Z,44.11
2024-04-05T01:58:24.445Z,43.40
2024-04-05T01:59:26.948Z,42.10
2024-04-05T02:00:29.338Z,45.90
2024-04-05T02:01:34.431Z,46.80
2024-04-05T02:02:36.847Z,49.60
2024-04-05T02:03:39.186Z,47.20
2024-04-05T02:04:41.801Z,48.00
2024-04-05T02:05:44.087Z,45.50
2024-04-05T02:06:46.290Z,50.10
2024-04-05T02:07:48.805Z,42.40
2024-04-05T02:08:51.141Z,38.80
2024-04-05T02:09:53.473Z,45.00
2024-04-05T02:10:56.004Z,41.30
2024-04-05T02:11:58.983Z,43.60
2024-04-05T02:13:01.363Z,43.70
2024-04-05T02:14:03.860Z,41.50
2024-04-05T02:15:06.719Z,50.00
2024-04-05T02:16:09.384Z,47.80
2024-04-05T02:17:11.865Z,44.40
2024-04-05T02:18:14.081Z,4.60
2024-04-05T02:19:16.367Z,47.40
2024-04-05T02:20:18.621Z,49.10
2024-04-05T02:21:21.042Z,41.50
2024-04-05T02:22:23.161Z,45.30
2024-04-05T02:23:25.620Z,48.80
2024-04-05T02:24:28.145Z,39.70
2024-04-05T02:25:32.300Z,49.10
2024-04-05T02:26:34.708Z,44.80
2024-04-05T02:27:36.982Z,47.90
2024-04-05T02:28:39.401Z,46.50
2024-04-05T02:29:41.832Z,45.60
2024-04-05T02:30:44.509Z,40.80
2024-04-05T02:31:46.765Z,45.30
2024-04-05T02:32:49.195Z,48.20
2024-04-05T02:33:51.464Z,53.20
2024-04-05T02:34:53.624Z,53.30
2024-04-05T02:35:59.756Z,49.70
2024-04-05T02:37:02.283Z,52.70
2024-04-05T02:38:04.910Z,53.40
2024-04-05T02:39:07.046Z,53.90
2024-04-05T02:40:10.488Z,52.18
2024-04-05T02:41:12.831Z,55.82
2024-04-05T02:42:15.135Z,52.90
2024-04-05T02:43:17.418Z,51.10
2024-04-05T02:44:19.736Z,49.10
2024-04-05T02:45:22.031Z,52.80
2024-04-05T02:46:24.815Z,50.80
2024-04-05T02:47:27.130Z,49.20
2024-04-05T02:48:29.591Z,50.20
2024-04-05T02:49:31.771Z,54.70
2024-04-05T02:50:34.216Z,51.40
2024-04-05T02:51:36.749Z,49.80
2024-04-05T02:52:39.019Z,49.60
2024-04-05T02:53:41.361Z,53.80
2024-04-05T02:54:43.762Z,54.00
2024-04-05T02:55:45.994Z,28.10
2024-04-05T02:56:48.425Z,45.80
2024-04-05T02:57:50.822Z,51.60
2024-04-05T02:58:53.012Z,51.60
2024-04-05T02:59:55.368Z,55.00
2024-04-05T03:00:57.622Z,53.60
2024-04-05T03:01:59.854Z,59.00
2024-04-05T03:03:02.008Z,55.10
2024-04-05T03:04:04.512Z,56.20
2024-04-05T03:05:07.390Z,61.40
2024-04-05T03:06:09.709Z,63.20
2024-04-05T03:07:11.944Z,63.30
2024-04-05T03:08:14.327Z,70.10
2024-04-05T03:09:16.426Z,64.30
2024-04-05T03:10:18.786Z,65.60
2024-04-05T03:11:21.046Z,64.10
2024-04-05T03:12:23.469Z,61.90
2024-04-05T03:13:27.069Z,69.70
2024-04-05T03:14:29.533Z,72.70
2024-04-05T03:15:31.986Z,82.30
2024-04-05T03:16:34.194Z,74.00
2024-04-05T03:17:36.652Z,68.20
2024-04-05T03:18:39.078Z,67.20
2024-04-05T03:19:41.403Z,69.60
2024-04-05T03:20:43.509Z,69.11
2024-04-05T03:21:45.969Z,67.10
2024-04-05T03:22:48.162Z,65.20
2024-04-05T03:23:50.633Z,62.80
2024-04-05T03:24:52.991Z,60.70
2024-04-05T03:25:55.186Z,61.90
2024-04-05T03:26:57.670Z,61.80
2024-04-05T03:27:59.814Z,61.20
2024-04-05T03:29:02.184Z,63.60
2024-04-05T03:30:07.711Z,62.60
2024-04-05T03:31:09.368Z,60.90
2024-04-05T03:32:11.625Z,62.70
2024-04-05T03:33:13.934Z,59.10
2024-04-05T03:34:16.294Z,57.00
2024-04-05T03:35:18.657Z,56.70
2024-04-05T03:36:21.045Z,63.70
2024-04-05T03:37:23.336Z,60.20
2024-04-05T03:38:25.433Z,65.80
2024-04-05T03:39:27.868Z,61.50
2024-04-05T03:40:30.156Z,62.50
2024-04-05T03:41:32.379Z,67.60
2024-04-05T03:42:34.927Z,78.60
2024-04-05T03:43:38.957Z,79.20
2024-04-05T03:44:41.451Z,75.10
2024-04-05T03:45:43.569Z,75.67
2024-04-05T03:46:46.004Z,74.90
2024-04-05T03:47:48.125Z,77.60
2024-04-05T03:48:50.493Z,71.00
2024-04-05T03:49:52.709Z,69.40
2024-04-05T03:50:54.971Z,63.33
2024-04-05T03:51:57.295Z,71.40
2024-04-05T03:52:59.695Z,69.30
2024-04-05T03:54:01.957Z,68.80
2024-04-05T03:55:04.874Z,69.30
2024-04-05T03:56:08.020Z,35.30
2024-04-05T03:57:10.271Z,69.00
2024-04-05T03:58:12.368Z,63.80
2024-04-05T03:59:15.557Z,70.56
2024-04-05T04:00:20.019Z,79.10
2024-04-05T04:01:22.423Z,84.10
2024-04-05T04:02:24.746Z,87.20
2024-04-05T04:03:27.043Z,90.70
2024-04-05T04:04:29.367Z,145.00
2024-04-05T04:05:31.531Z,214.33
2024-04-05T04:06:33.920Z,181.11
2024-04-05T04:07:36.058Z,141.44
2024-04-05T04:08:38.511Z,98.40
2024-04-05T04:09:40.708Z,91.56
2024-04-05T04:10:43.166Z,78.10
2024-04-05T04:11:45.596Z,83.20
2024-04-05T04:12:47.625Z,80.10
2024-04-05T04:13:49.910Z,78.56
2024-04-05T04:14:52.068Z,74.60
2024-04-05T04:15:54.432Z,75.30
2024-04-05T04:16:56.660Z,58.10
2024-04-05T04:18:01.489Z,68.70
2024-04-05T04:19:03.918Z,57.40
2024-04-05T04:20:07.617Z,63.60
2024-04-05T04:21:10.006Z,68.70
2024-04-05T04:22:12.341Z,70.50
2024-04-05T04:23:14.611Z,74.50
2024-04-05T04:24:17.015Z,72.00
2024-04-05T04:25:20.977Z,77.40
2024-04-05T04:26:23.285Z,78.78
2024-04-05T04:27:25.427Z,64.70
2024-04-05T04:28:27.700Z,77.78
2024-04-05T04:29:29.657Z,73.33
2024-04-05T04:30:32.126Z,74.22
2024-04-05T04:31:34.620Z,72.70
2024-04-05T04:32:36.852Z,78.10
2024-04-05T04:33:39.194Z,73.60
2024-04-05T04:34:42.149Z,65.00
2024-04-05T04:35:45.456Z,71.00
2024-04-05T04:36:47.860Z,70.60
2024-04-05T04:37:50.092Z,64.40
2024-04-05T04:38:52.557Z,66.20
2024-04-05T04:39:54.966Z,63.90
2024-04-05T04:40:57.369Z,64.00
2024-04-05T04:41:59.674Z,66.50
2024-04-05T04:43:01.940Z,61.20
2024-04-05T04:44:04.769Z,56.00
2024-04-05T04:45:07.958Z,57.80
2024-04-05T04:46:11.575Z,52.40
2024-04-05T04:47:14.060Z,47.70
2024-04-05T04:48:16.407Z,46.20
2024-04-05T04:49:19.236Z,50.55
2024-04-05T04:50:21.664Z,46.00
2024-04-05T04:51:24.444Z,46.30
2024-04-05T04:52:26.832Z,51.91
2024-04-05T04:53:28.993Z,54.20
2024-04-05T04:54:32.386Z,53.90
2024-04-05T04:55:37.276Z,51.70
2024-04-05T04:56:39.773Z,50.70
2024-04-05T04:57:45.748Z,48.70
2024-04-05T04:58:48.242Z,34.80
2024-04-05T04:59:51.813Z,39.80
2024-04-05T05:00:54.444Z,36.30
2024-04-05T05:01:56.821Z,41.30
2024-04-05T05:02:59.422Z,39.40
2024-04-05T05:04:04.144Z,29.90
2024-04-05T05:05:06.440Z,37.00
2024-04-05T05:06:08.943Z,36.50
2024-04-05T05:07:11.424Z,33.40
2024-04-05T05:08:13.986Z,35.60
2024-04-05T05:09:16.886Z,36.40
2024-04-05T05:10:19.457Z,32.70
2024-04-05T05:11:24.046Z,47.70
2024-04-05T05:12:26.598Z,40.70
2024-04-05T05:13:30.116Z,49.30
2024-04-05T05:14:32.530Z,46.10
2024-04-05T05:15:35.266Z,51.00
2024-04-05T05:16:37.761Z,43.73
2024-04-05T05:17:40.248Z,39.70
2024-04-05T05:18:42.740Z,33.70
2024-04-05T05:19:45.447Z,19.20
2024-04-05T05:20:48.854Z,19.70
2024-04-05T05:21:51.112Z,23.20
2024-04-05T05:22:56.992Z,24.10
2024-04-05T05:23:59.449Z,28.40
2024-04-05T05:25:02.200Z,27.10
2024-04-05T05:26:05.319Z,25.30
2024-04-05T05:27:07.872Z,27.40
2024-04-05T05:28:12.495Z,26.70
2024-04-05T05:29:14.805Z,28.90
2024-04-05T05:30:17.393Z,24.30
2024-04-05T05:31:19.930Z,32.00
2024-04-05T05:32:22.254Z,54.60
2024-04-05T05:33:24.512Z,47.50
2024-04-05T05:34:26.958Z,42.90
2024-04-05T05:35:29.349Z,34.40
2024-04-05T05:36:31.850Z,42.70
2024-04-05T05:37:34.525Z,74.40
2024-04-05T05:38:36.711Z,71.90
2024-04-05T05:39:39.316Z,65.20
2024-04-05T05:40:41.670Z,69.80
2024-04-05T05:41:44.093Z,89.10
2024-04-05T05:42:46.323Z,74.50
2024-04-05T05:43:49.953Z,74.60
2024-04-05T05:44:52.400Z,46.80
2024-04-05T05:45:54.603Z,42.90
2024-04-05T05:46:57.055Z,56.00
2024-04-05T05:47:59.323Z,49.70
2024-04-05T05:49:01.560Z,37.40
2024-04-05T05:50:04.572Z,25.10
2024-04-05T05:51:07.034Z,25.10
2024-04-05T05:52:09.412Z,20.10
2024-04-05T05:53:11.509Z,19.20
2024-04-05T05:54:13.911Z,20.40
2024-04-05T05:55:16.569Z,18.60
2024-04-05T05:56:18.836Z,17.30
2024-04-05T05:57:21.412Z,25.90
2024-04-05T05:58:23.874Z,17.50
2024-04-05T05:59:26.336Z,20.20
2024-04-05T06:00:29.156Z,41.45
2024-04-05T06:01:31.984Z,28.10
2024-04-05T06:02:38.598Z,42.00
2024-04-05T06:03:41.525Z,36.30
2024-04-05T06:04:43.845Z,31.73
2024-04-05T06:05:52.427Z,40.70
2024-04-05T06:06:55.793Z,22.40
2024-04-05T06:07:58.126Z,21.80
2024-04-05T06:09:00.601Z,43.10
2024-04-05T06:10:03.567Z,45.20
2024-04-05T06:11:06.372Z,48.10
2024-04-05T06:12:10.769Z,38.20
2024-04-05T06:13:13.222Z,19.60
2024-04-05T06:14:16.214Z,16.20
2024-04-05T06:15:18.651Z,28.70
2024-04-05T06:16:21.098Z,24.50
2024-04-05T06:17:24.155Z,26.40
2024-04-05T06:18:28.308Z,27.90
2024-04-05T06:19:44.324Z,20.40
2024-04-05T06:20:55.438Z,17.20
2024-04-05T06:21:57.814Z,12.60
2024-04-05T06:23:00.246Z,10.30
2024-04-05T06:24:02.945Z,11.90
2024-04-05T06:25:18.463Z,11.70
2024-04-05T06:26:20.899Z,16.20
2024-04-05T06:27:23.763Z,13.80
2024-04-05T06:28:26.854Z,10.90
2024-04-05T06:29:29.510Z,62.45
2024-04-05T06:30:31.729Z,56.90
2024-04-05T06:31:35.468Z,65.90
2024-04-05T06:32:37.843Z,64.90
2024-04-05T06:33:40.095Z,54.70
2024-04-05T06:34:42.971Z,24.50
2024-04-05T06:35:45.868Z,14.27
2024-04-05T06:36:48.259Z,31.36
2024-04-05T06:37:50.695Z,96.10
2024-04-05T06:38:53.124Z,67.70
2024-04-05T06:39:55.676Z,28.40
2024-04-05T06:41:01.024Z,36.90
2024-04-05T06:42:03.810Z,31.40
2024-04-05T06:43:08.409Z,21.70
2024-04-05T06:44:11.094Z,53.40
2024-04-05T06:45:13.497Z,66.60
2024-04-05T06:46:15.805Z,59.50
2024-04-05T06:47:18.271Z,89.60
2024-04-05T06:48:20.492Z,65.00
2024-04-05T06:49:22.843Z,68.20
2024-04-05T06:50:25.219Z,62.30
2024-04-05T06:51:27.386Z,48.50
2024-04-05T06:52:29.779Z,44.70
2024-04-05T06:53:32.012Z,45.90
2024-04-05T06:54:44.129Z,50.60
2024-04-05T06:55:49.791Z,38.10
2024-04-05T06:56:52.387Z,18.20
2024-04-05T06:57:54.588Z,13.20
2024-04-05T06:58:57.070Z,10.50
2024-04-05T06:59:59.296Z,9.70
2024-04-05T07:01:02.155Z,12.40
2024-04-05T07:02:17.616Z,31.60
2024-04-05T07:03:20.130Z,18.40
2024-04-05T07:04:22.364Z,14.80
2024-04-05T07:05:24.705Z,16.00
2024-04-05T07:06:26.958Z,26.20
2024-04-05T07:07:29.373Z,31.90
2024-04-05T07:08:31.758Z,22.60
2024-04-05T07:09:34.096Z,28.70
2024-04-05T07:10:48.146Z,27.60
2024-04-05T07:11:41.483Z,20.20
2024-04-05T07:12:43.948Z,16.40
2024-04-05T07:13:46.462Z,17.80
2024-04-05T07:14:48.984Z,21.80
2024-04-05T07:15:51.559Z,20.80
2024-04-05T07:16:53.796Z,14.30
2024-04-05T07:17:56.335Z,13.20
2024-04-05T07:18:58.728Z,12.90
2024-04-05T07:20:01.199Z,28.60
2024-04-05T07:21:04.272Z,26.00
2024-04-05T07:22:06.642Z,21.36
2024-04-05T07:23:09.036Z,21.80
2024-04-05T07:24:11.220Z,21.30
2024-04-05T07:25:14.037Z,15.50
2024-04-05T07:26:16.311Z,15.55
2024-04-05T07:27:18.760Z,19.60
2024-04-05T07:28:21.187Z,18.80
2024-04-05T07:29:23.591Z,24.50
2024-04-05T07:30:26.186Z,19.50
2024-04-05T07:31:29.402Z,14.00
2024-04-05T07:32:32.155Z,15.00
2024-04-05T07:33:34.469Z,12.40
2024-04-05T07:34:36.781Z,11.10
2024-04-05T07:35:39.301Z,12.20
2024-04-05T07:36:41.762Z,17.30
2024-04-05T07:37:50.503Z,10.20
2024-04-05T07:38:53.036Z,13.40
2024-04-05T07:39:55.914Z,17.70
2024-04-05T07:41:06.426Z,13.30
2024-04-05T07:42:08.783Z,15.40
2024-04-05T07:43:11.030Z,12.80
2024-04-05T07:44:14.285Z,12.60
2024-04-05T07:45:16.894Z,13.60
2024-04-05T07:46:19.302Z,14.90
2024-04-05T07:47:21.543Z,11.50
2024-04-05T07:48:24.095Z,16.30
2024-04-05T07:49:26.274Z,25.00
2024-04-05T07:50:28.626Z,16.40
2024-04-05T07:51:31.617Z,13.50
2024-04-05T07:52:34.060Z,15.90
2024-04-05T07:53:36.215Z,13.60
2024-04-05T07:54:42.193Z,14.00
2024-04-05T07:55:44.581Z,13.10
2024-04-05T07:56:48.215Z,9.30
2024-04-05T07:57:51.696Z,11.90
2024-04-05T07:58:54.112Z,11.10
2024-04-05T07:59:56.560Z,6.00
2024-04-05T08:00:59.133Z,14.30
2024-04-05T08:02:01.599Z,14.00
2024-04-05T08:03:04.395Z,18.10
2024-04-05T08:04:06.683Z,16.27
2024-04-05T08:05:09.101Z,17.30
2024-04-05T08:06:11.577Z,14.90
2024-04-05T08:07:14.058Z,8.70
2024-04-05T08:08:16.582Z,8.90
2024-04-05T08:09:18.965Z,9.40
2024-04-05T08:10:21.278Z,9.60
2024-04-05T08:11:23.578Z,12.00
2024-04-05T08:12:26.059Z,12.70
2024-04-05T08:13:28.646Z,9.00
2024-04-05T08:14:30.936Z,10.00
2024-04-05T08:15:33.653Z,7.70
2024-04-05T08:16:39.085Z,9.40
2024-04-05T08:17:41.522Z,10.20
2024-04-05T08:18:44.039Z,9.10
2024-04-05T08:19:46.572Z,7.90
2024-04-05T08:20:48.838Z,7.60
2024-04-05T08:21:51.145Z,9.70
2024-04-05T08:22:53.487Z,10.50
2024-04-05T08:23:56.011Z,11.00
2024-04-05T08:24:58.788Z,13.00
2024-04-05T08:26:01.496Z,10.00
2024-04-05T08:27:04.497Z,9.00
2024-04-05T08:28:06.809Z,7.30
2024-04-05T08:29:09.080Z,6.80
2024-04-05T08:30:12.108Z,9.10
2024-04-05T08:31:14.371Z,9.27
2024-04-05T08:32:16.725Z,7.70
2024-04-05T08:33:19.637Z,9.70
2024-04-05T08:34:22.516Z,7.45
2024-04-05T08:35:24.936Z,15.10
2024-04-05T08:36:27.535Z,24.90
2024-04-05T08:37:29.995Z,18.90
2024-04-05T08:38:32.274Z,30.00
2024-04-05T08:39:34.960Z,37.30
2024-04-05T08:40:39.903Z,32.40
2024-04-05T08:41:44.634Z,18.60
2024-04-05T08:42:48.842Z,56.80
2024-04-05T08:43:52.958Z,32.00
2024-04-05T08:44:55.954Z,14.50
2024-04-05T08:45:58.486Z,6.30
2024-04-05T08:47:02.215Z,16.30
2024-04-05T08:48:05.585Z,76.50
2024-04-05T08:49:08.698Z,108.00
2024-04-05T08:50:13.077Z,71.30
2024-04-05T08:51:16.147Z,55.50
2024-04-05T08:52:18.852Z,54.90
2024-04-05T08:53:21.395Z,55.00
2024-04-05T08:54:23.995Z,120.80
2024-04-05T08:55:28.332Z,73.80
2024-04-05T08:56:31.393Z,68.80
2024-04-05T08:57:38.742Z,62.60
2024-04-05T08:58:42.651Z,72.60
2024-04-05T08:59:49.774Z,63.30
2024-04-05T09:00:51.833Z,51.70
2024-04-05T09:02:07.233Z,20.80
2024-04-05T09:03:09.546Z,14.00
2024-04-05T09:04:13.444Z,11.90
2024-04-05T09:05:17.926Z,25.10
2024-04-05T09:06:20.578Z,12.50
2024-04-05T09:07:23.128Z,34.70
2024-04-05T09:08:25.594Z,63.10
2024-04-05T09:09:29.207Z,74.20
2024-04-05T09:10:33.407Z,57.30
2024-04-05T09:11:35.914Z,69.70
2024-04-05T09:12:49.600Z,62.90
2024-04-05T09:13:57.341Z,49.30
2024-04-05T09:14:59.930Z,52.60
2024-04-05T09:16:02.327Z,44.00
2024-04-05T09:17:15.818Z,37.20
2024-04-05T09:18:26.542Z,26.50
2024-04-05T09:19:28.880Z,17.40
2024-04-05T09:20:31.577Z,18.20
2024-04-05T09:21:34.621Z,12.30
2024-04-05T09:22:36.831Z,7.70
2024-04-05T09:23:48.443Z,7.20
2024-04-05T09:25:02.745Z,5.20
2024-04-05T09:26:05.318Z,15.00
2024-04-05T09:27:07.744Z,27.70
2024-04-05T09:28:12.571Z,10.00
2024-04-05T09:29:15.779Z,8.00
2024-04-05T09:30:18.425Z,14.10
2024-04-05T09:31:21.382Z,8.20
2024-04-05T09:32:23.608Z,7.50
2024-04-05T09:33:26.115Z,12.00
2024-04-05T09:34:30.156Z,25.70
2024-04-05T09:35:37.843Z,22.10
2024-04-05T09:36:40.517Z,16.00
2024-04-05T09:37:43.147Z,17.40
2024-04-05T09:38:46.118Z,16.09
2024-04-05T09:39:50.100Z,16.40
2024-04-05T09:40:52.951Z,28.30
2024-04-05T09:41:55.169Z,45.30
2024-04-05T09:42:58.887Z,75.30
2024-04-05T09:44:10.255Z,49.00
2024-04-05T09:45:08.823Z,32.50
2024-04-05T09:46:13.009Z,40.40
2024-04-05T09:47:18.006Z,13.70
2024-04-05T09:48:22.021Z,25.20
2024-04-05T09:49:25.615Z,25.20
2024-04-05T09:50:30.568Z,31.30
2024-04-05T09:51:42.723Z,35.40
2024-04-05T09:52:45.331Z,10.50
2024-04-05T09:53:50.855Z,6.20
2024-04-05T09:54:56.261Z,9.60
2024-04-05T09:56:00.659Z,17.60
2024-04-05T09:57:03.901Z,21.10
2024-04-05T09:58:06.726Z,10.20
2024-04-05T09:59:15.555Z,5.20
2024-04-05T10:00:21.750Z,5.90
2024-04-05T10:01:24.252Z,7.00
2024-04-05T10:02:29.190Z,12.60
2024-04-05T10:03:31.844Z,11.18
2024-04-05T10:04:37.301Z,12.40
2024-04-05T10:05:39.441Z,13.30
2024-04-05T10:06:42.534Z,13.80
2024-04-05T10:07:44.835Z,16.73
2024-04-05T10:08:47.354Z,9.20
2024-04-05T10:09:49.699Z,7.60
2024-04-05T10:10:54.156Z,9.60
2024-04-05T10:11:56.571Z,12.90
2024-04-05T10:13:11.227Z,67.60
2024-04-05T10:14:27.796Z,29.70
2024-04-05T10:15:30.831Z,10.90
2024-04-05T10:16:34.825Z,18.50
2024-04-05T10:17:38.043Z,55.30
2024-04-05T10:18:41.316Z,49.00
2024-04-05T10:19:44.811Z,54.90
2024-04-05T10:20:52.165Z,95.30
2024-04-05T10:22:04.872Z,103.30
2024-04-05T10:23:11.370Z,74.70
2024-04-05T10:24:14.630Z,30.10
2024-04-05T10:25:17.966Z,35.27
2024-04-05T10:26:21.314Z,86.91
2024-04-05T10:27:27.004Z,115.20
2024-04-05T10:28:30.180Z,58.00
2024-04-05T10:29:32.620Z,64.73
2024-04-05T10:30:35.620Z,68.80
2024-04-05T10:31:41.486Z,66.00
2024-04-05T10:32:48.711Z,50.30
2024-04-05T10:33:51.299Z,44.10
2024-04-05T10:34:57.321Z,36.40
2024-04-05T10:36:00.909Z,46.40
2024-04-05T10:37:06.833Z,33.90
2024-04-05T10:38:19.292Z,24.50
2024-04-05T10:39:14.373Z,45.20
2024-04-05T10:40:17.628Z,28.00
2024-04-05T10:41:20.114Z,10.40
2024-04-05T10:42:26.475Z,7.80
2024-04-05T10:43:31.202Z,8.00
2024-04-05T10:44:33.733Z,21.90
2024-04-05T10:45:36.895Z,20.10
2024-04-05T10:46:40.053Z,10.40
2024-04-05T10:47:53.198Z,12.10
2024-04-05T10:48:59.172Z,8.60
2024-04-05T10:50:04.178Z,6.30
2024-04-05T10:51:06.366Z,8.50
2024-04-05T10:52:09.032Z,17.10
2024-04-05T10:53:14.993Z,42.70
2024-04-05T10:54:17.308Z,38.70
2024-04-05T10:55:22.268Z,31.00
2024-04-05T10:56:24.839Z,20.30
2024-04-05T10:57:30.476Z,13.90
2024-04-05T10:58:35.531Z,24.70
2024-04-05T10:59:37.988Z,25.40
2024-04-05T11:00:41.397Z,17.70
2024-04-05T11:01:44.084Z,22.80
2024-04-05T11:02:46.551Z,13.40
2024-04-05T11:03:48.824Z,10.60
2024-04-05T11:04:51.111Z,16.20
2024-04-05T11:05:57.153Z,10.00
2024-04-05T11:07:00.365Z,10.10
2024-04-05T11:08:06.071Z,6.50
2024-04-05T11:09:09.529Z,7.70
2024-04-05T11:10:27.200Z,4.40
2024-04-05T11:11:24.133Z,9.50
2024-04-05T11:12:26.458Z,14.50
2024-04-05T11:13:28.725Z,11.40
2024-04-05T11:14:31.606Z,18.30
2024-04-05T11:15:34.092Z,16.18
2024-04-05T11:16:37.670Z,12.10
2024-04-05T11:17:40.306Z,9.10
2024-04-05T11:18:42.714Z,9.00
2024-04-05T11:19:45.278Z,8.90
2024-04-05T11:20:50.642Z,11.60
2024-04-05T11:22:04.549Z,8.40
2024-04-05T11:23:17.189Z,9.10
2024-04-05T11:24:21.551Z,9.50
2024-04-05T11:25:30.313Z,17.20
2024-04-05T11:26:37.251Z,5.10
2024-04-05T11:27:40.462Z,14.00
2024-04-05T11:28:45.199Z,11.00
2024-04-05T11:29:51.202Z,12.50
2024-04-05T11:30:55.027Z,13.50
2024-04-05T11:31:59.620Z,17.60
2024-04-05T11:33:03.541Z,17.00
2024-04-05T11:34:06.460Z,19.80
2024-04-05T11:35:10.341Z,14.70
2024-04-05T11:36:12.980Z,16.09
2024-04-05T11:37:15.403Z,19.40
2024-04-05T11:38:17.880Z,12.20
2024-04-05T11:39:20.221Z,9.00
2024-04-05T11:40:32.932Z,8.50
2024-04-05T11:41:27.621Z,10.40
2024-04-05T11:42:30.202Z,10.60
2024-04-05T11:43:33.594Z,17.10
2024-04-05T11:44:36.022Z,12.90
2024-04-05T11:45:38.387Z,9.00
2024-04-05T11:46:40.721Z,8.90
2024-04-05T11:47:44.453Z,6.30
2024-04-05T11:48:47.016Z,6.30
2024-04-05T11:49:52.234Z,5.60
2024-04-05T11:50:54.642Z,4.30
2024-04-05T11:51:57.036Z,7.30
2024-04-05T11:52:59.587Z,15.60
2024-04-05T11:54:02.112Z,10.50
2024-04-05T11:55:05.150Z,8.60
2024-04-05T11:56:08.003Z,8.10
2024-04-05T11:57:12.681Z,8.30
2024-04-05T11:58:14.990Z,8.60
2024-04-05T11:59:18.477Z,12.40
2024-04-05T12:00:20.989Z,11.00
2024-04-05T12:01:23.414Z,8.20
2024-04-05T12:02:25.786Z,6.30
2024-04-05T12:03:27.940Z,7.50
2024-04-05T12:04:30.261Z,9.40
2024-04-05T12:05:32.600Z,9.50
2024-04-05T12:06:35.218Z,8.10
2024-04-05T12:07:38.148Z,2.73
2024-04-05T12:08:40.351Z,4.20
2024-04-05T12:09:43.112Z,4.00
2024-04-05T12:10:45.413Z,6.55
2024-04-05T12:11:49.703Z,5.20
2024-04-05T12:12:52.017Z,7.80
2024-04-05T12:13:54.381Z,7.60
2024-04-05T12:14:57.904Z,5.00
2024-04-05T12:16:00.587Z,12.70
2024-04-05T12:17:03.544Z,15.10
2024-04-05T12:18:07.710Z,11.27
2024-04-05T12:19:09.918Z,7.90
2024-04-05T12:20:14.439Z,6.90
2024-04-05T12:21:17.161Z,2.64
2024-04-05T12:22:19.841Z,7.00
2024-04-05T12:23:22.036Z,5.10
2024-04-05T12:24:24.542Z,6.50
2024-04-05T12:25:28.629Z,9.00
2024-04-05T12:26:36.973Z,12.40
2024-04-05T12:27:35.422Z,12.30
2024-04-05T12:28:37.879Z,12.40
2024-04-05T12:29:40.108Z,10.80
2024-04-05T12:30:43.624Z,10.80
2024-04-05T12:31:46.088Z,10.20
2024-04-05T12:32:48.266Z,9.00
2024-04-05T12:33:50.700Z,7.20
2024-04-05T12:34:53.073Z,8.70
2024-04-05T12:35:56.851Z,8.20
2024-04-05T12:36:59.397Z,10.20
2024-04-05T12:38:01.599Z,10.20
2024-04-05T12:39:04.038Z,5.50
2024-04-05T12:40:08.343Z,3.70
2024-04-05T12:41:10.964Z,6.40
2024-04-05T12:42:13.352Z,5.90
2024-04-05T12:43:15.558Z,7.20
2024-04-05T12:44:20.937Z,4.70
2024-04-05T12:45:22.533Z,3.20
2024-04-05T12:46:25.065Z,17.30
2024-04-05T12:47:27.549Z,15.90
2024-04-05T12:48:29.782Z,13.20
2024-04-05T12:49:32.252Z,10.80
2024-04-05T12:50:34.519Z,9.40
2024-04-05T12:51:36.908Z,8.90
2024-04-05T12:52:39.246Z,11.40
2024-04-05T12:53:41.576Z,8.40
2024-04-05T12:54:43.872Z,5.60
2024-04-05T12:55:57.247Z,10.60
2024-04-05T12:57:02.759Z,16.20
2024-04-05T12:58:05.183Z,21.70
2024-04-05T12:59:08.250Z,19.00
2024-04-05T13:00:12.002Z,16.60
2024-04-05T13:01:14.523Z,13.00
2024-04-05T13:02:17.811Z,11.50
2024-04-05T13:03:21.047Z,5.30
2024-04-05T13:04:23.719Z,8.40
2024-04-05T13:05:26.071Z,9.80
2024-04-05T13:06:28.672Z,11.20
2024-04-05T13:07:30.974Z,17.10
2024-04-05T13:08:34.348Z,18.70
2024-04-05T13:09:36.992Z,24.00
2024-04-05T13:10:39.534Z,13.50
2024-04-05T13:11:42.074Z,9.00
2024-04-05T13:12:44.498Z,9.00
2024-04-05T13:13:47.629Z,27.80
2024-04-05T13:14:50.052Z,21.90
2024-04-05T13:15:54.250Z,21.50
2024-04-05T13:16:56.756Z,27.50
2024-04-05T13:17:59.248Z,27.70
2024-04-05T13:19:02.162Z,10.50
2024-04-05T13:20:05.752Z,25.90
2024-04-05T13:21:13.474Z,52.50
2024-04-05T13:22:16.044Z,53.60
2024-04-05T13:23:18.595Z,55.90
2024-04-05T13:24:20.991Z,56.30
2024-04-05T13:25:25.271Z,43.50
2024-04-05T13:26:27.806Z,9.90
2024-04-05T13:27:31.027Z,4.80
2024-04-05T13:28:34.082Z,15.80
2024-04-05T13:29:36.478Z,49.30
2024-04-05T13:30:39.032Z,62.60
2024-04-05T13:31:41.507Z,64.90
2024-04-05T13:32:43.984Z,60.20
2024-04-05T13:33:46.843Z,28.50
2024-04-05T13:34:51.308Z,14.82
2024-04-05T13:35:53.740Z,13.20
2024-04-05T13:36:56.144Z,5.70
2024-04-05T13:37:59.176Z,15.40